Halcyon, California
Current Conditions -  °F | °C
As of 2:56 AM on Friday 21 Nov 2014 (Local Time) from KSBP Reporting Station
Clear Clear  
Wind Chill: 49°   Ceiling: Unl
Heat Index: 49°   Visibility: 10mi
Dew Point: 48°   Wind: 3mph
Humidity: 97%   Direction: 140°SE
Pressure: 30.02"   Gusts: NA
Location:  35.1188°N, 120.589°W
Report Text: KSBP 211056Z AUTO 14003KT 10SM CLR 09/09 A3002 RMK AO2 SLP165 T00940089
Loading
Personal Weather Stations






























Interactive Weather Map New forecast layout! Learn more

10-Day Weather Forecast

Advertisements
Track Severe Weather on mobile